Terminal Aerodrome Forecast
Issued by NWS

Home | Current Version | Previous Version | Text Only | Print | Product List | Glossary On
Versions: 1 2 3 4 5 6 7 8 9 10 11 12 13 14 15 16 17 18 19 20 21 22 23 24 25 26 27 28 29 30
000
FTAK31 PAFA 282338
TAFAOM
TAF
PAOM 282338Z 2900/2924 09008KT 6SM BR BKN003 OVC015
      TEMPO 2900/2903 2SM BR
     FM290300 20010KT 6SM BR BKN007 OVC017
     FM290900 08014KT 2SM -SN BKN007 OVC015
     FM291600 09014KT 5SM -SHSN SCT007 OVC015=

USA.gov is the U.S. government's official web portal to all federal, state and local government web resources and services.